Time;durP1;ratioP1;P1;durP2;ratioP2;P2;SDS_P1;SDS_P2;PMS_P1;PMS_P2;Temp;Humidity;BMP_temperature;BMP_pressure;BME280_temperature;BME280_humidity;BME280_pressure;Samples;Min_cycle;Max_cycle;Signal;HPM_P1;HPM_P2
2021/04/09 00:02:02;;;;;;;;;;;5.90;99.90;;;;;;5069663;28;19919;-59
2021/04/09 00:04:28;;;;;;;;;;;5.90;99.90;;;;;;5069859;28;20359;-59
2021/04/09 00:06:54;;;;;;;;;;;5.90;99.90;;;;;;5070475;28;19920;-61
2021/04/09 00:09:20;;;;;;;;;;;5.80;99.90;;;;;;5069481;28;19913;-62
2021/04/09 00:11:46;;;;;;;;;;;5.80;99.90;;;;;;5070855;28;19951;-61
2021/04/09 00:14:13;;;;;;;;;;;5.90;99.90;;;;;;5069703;28;19924;-60
2021/04/09 00:16:39;;;;;;;;;;;5.90;99.90;;;;;;5069341;28;19920;-61
2021/04/09 00:19:09;;;;;;;;;;;5.90;99.90;;;;;;5069217;28;19939;-60
2021/04/09 00:21:35;;;;;;;;;;;5.90;99.90;;;;;;5068939;28;19916;-61
2021/04/09 00:24:01;;;;;;;;;;;5.90;99.90;;;;;;5069909;28;20281;-60
2021/04/09 00:26:27;;;;;;;;;;;5.90;99.90;;;;;;5070975;28;19970;-61
2021/04/09 00:28:53;;;;;;;;;;;5.90;99.90;;;;;;5069128;28;19925;-60
2021/04/09 00:31:19;;;;;;;;;;;5.90;99.90;;;;;;5072309;28;19955;-61
2021/04/09 00:33:45;;;;;;;;;;;5.90;99.90;;;;;;5074098;28;20319;-62
2021/04/09 00:36:11;;;;;;;;;;;5.90;99.90;;;;;;5071241;28;19917;-61
2021/04/09 00:38:37;;;;;;;;;;;6.00;99.90;;;;;;5072661;28;19931;-64
2021/04/09 00:41:03;;;;;;;;;;;6.00;99.90;;;;;;5071433;28;19917;-64
2021/04/09 00:43:28;;;;;;;;;;;6.00;99.90;;;;;;5070309;28;19955;-65
2021/04/09 00:45:54;;;;;;;;;;;6.00;99.90;;;;;;5073050;28;20034;-63
2021/04/09 00:48:20;;;;;;;;;;;5.90;99.90;;;;;;5072906;28;20332;-64
2021/04/09 00:50:46;;;;;;;;;;;6.00;99.90;;;;;;5072808;28;19913;-63
2021/04/09 00:53:13;;;;;;;;;;;6.00;99.90;;;;;;5070398;28;19924;-60
2021/04/09 00:55:39;;;;;;;;;;;6.00;99.90;;;;;;5071513;28;19925;-60
2021/04/09 00:58:05;;;;;;;;;;;6.00;99.90;;;;;;5072436;28;20336;-60
2021/04/09 01:00:31;;;;;;;;;;;6.00;99.90;;;;;;5072039;28;19924;-60
2021/04/09 01:02:57;;;;;;;;;;;6.00;99.90;;;;;;5072728;28;20350;-61
2021/04/09 01:05:23;;;;;;;;;;;6.00;99.90;;;;;;5072791;28;19917;-61
2021/04/09 01:07:49;;;;;;;;;;;6.00;99.90;;;;;;5071109;28;19924;-61
2021/04/09 01:10:16;;;;;;;;;;;6.00;99.90;;;;;;5087537;28;20378;-60
2021/04/09 01:12:42;;;;;;;;;;;6.00;99.90;;;;;;5070964;28;20292;-61
2021/04/09 01:15:09;;;;;;;;;;;6.00;99.90;;;;;;5066270;28;19916;-63
2021/04/09 01:17:40;;;;;;;;;;;6.00;99.90;;;;;;5070236;28;19924;-61
2021/04/09 01:20:09;;;;;;;;;;;6.00;99.90;;;;;;5073406;28;19919;-61
2021/04/09 01:22:42;;;;;;;;;;;6.00;99.90;;;;;;5067407;28;19924;-61
2021/04/09 01:25:17;;;;;;;364.38;66.43;;;6.00;99.90;;;;;;5069945;28;20581;-61
2021/04/09 01:28:04;;;;;;;126.47;26.23;;;6.00;99.90;;;;;;5070275;28;20493;-61
2021/04/09 01:30:57;;;;;;;32.47;5.28;;;6.00;99.90;;;;;;5068888;28;20700;-60
2021/04/09 01:33:31;;;;;;;40.20;10.20;;;6.00;99.90;;;;;;5069424;28;20162;-60
2021/04/09 01:36:02;;;;;;;51.65;10.20;;;6.00;99.90;;;;;;5085776;28;20295;-60
2021/04/09 01:38:29;;;;;;;45.53;10.07;;;6.00;99.90;;;;;;5050494;28;20202;-60
2021/04/09 01:40:55;;;;;;;44.08;9.98;;;6.00;99.90;;;;;;5086064;28;20571;-61
2021/04/09 01:43:22;;;;;;;53.50;11.30;;;5.90;99.90;;;;;;5071146;28;20183;-61
2021/04/09 01:45:48;;;;;;;61.17;11.57;;;5.90;99.90;;;;;;5068274;28;20170;-61
2021/04/09 01:48:15;;;;;;;47.70;11.25;;;5.90;99.90;;;;;;5086787;28;20174;-61
2021/04/09 01:50:41;;;;;;;47.72;12.68;;;5.90;99.90;;;;;;5084392;28;20186;-61
2021/04/09 01:53:07;;;;;;;49.22;9.63;;;5.80;99.90;;;;;;5085387;28;20638;-61
2021/04/09 01:55:35;;;;;;;42.35;8.73;;;5.80;99.90;;;;;;5070307;28;20178;-62
2021/04/09 01:58:02;;;;;;;43.95;9.05;;;5.80;99.90;;;;;;5051471;28;20824;-61
2021/04/09 02:00:29;;;;;;;45.85;8.13;;;5.80;99.90;;;;;;5087521;28;20193;-62
2021/04/09 02:02:55;;;;;;;60.60;10.35;;;5.80;99.90;;;;;;5067355;28;20178;-63
2021/04/09 02:05:22;;;;;;;46.75;9.65;;;5.80;99.90;;;;;;5083380;28;20170;-63
2021/04/09 02:07:50;;;;;;;44.92;9.90;;;5.80;99.90;;;;;;5086111;28;20186;-63
2021/04/09 02:10:16;;;;;;;48.53;9.68;;;5.80;99.90;;;;;;5084988;28;20170;-64
2021/04/09 02:12:43;;;;;;;23.58;7.35;;;5.80;99.90;;;;;;5068758;28;20564;-64
2021/04/09 02:15:15;;;;;;;58.97;9.68;;;5.80;99.90;;;;;;5085218;28;20181;-65
2021/04/09 02:17:41;;;;;;;38.15;8.68;;;5.80;99.90;;;;;;5071168;28;20556;-65
2021/04/09 02:20:17;;;;;;;51.88;9.63;;;5.80;99.90;;;;;;5069394;28;20181;-64
2021/04/09 02:22:44;;;;;;;42.53;9.48;;;5.80;99.90;;;;;;5085212;28;20209;-64
2021/04/09 02:25:10;;;;;;;82.93;12.18;;;5.80;99.90;;;;;;5070828;28;20180;-66
2021/04/09 02:27:37;;;;;;;37.47;7.40;;;5.80;99.90;;;;;;5068029;28;20228;-64
2021/04/09 02:30:07;;;;;;;43.08;7.47;;;5.80;99.90;;;;;;5086312;28;20213;-63
2021/04/09 02:32:33;;;;;;;43.70;6.47;;;5.80;99.90;;;;;;5067954;28;20185;-64
2021/04/09 02:34:59;;;;;;;50.35;9.63;;;5.80;99.90;;;;;;5067480;28;20661;-64
2021/04/09 02:37:26;;;;;;;40.55;6.32;;;5.80;99.90;;;;;;5070340;28;20560;-65
2021/04/09 02:39:56;;;;;;;59.95;11.60;;;5.80;99.90;;;;;;5085620;28;20189;-63
2021/04/09 02:42:22;;;;;;;79.53;12.63;;;5.70;99.90;;;;;;5086317;28;20171;-64
2021/04/09 02:44:48;;;;;;;59.78;11.35;;;5.80;99.90;;;;;;5068837;28;20166;-65
2021/04/09 02:47:21;;;;;;;84.10;14.50;;;5.80;99.90;;;;;;5085158;28;20390;-65
2021/04/09 02:49:51;;;;;;;73.05;13.23;;;5.80;99.90;;;;;;5083126;28;20409;-67
2021/04/09 02:52:20;;;;;;;85.80;14.82;;;5.70;99.90;;;;;;5081657;28;20383;-67
2021/04/09 02:54:51;;;;;;;71.35;13.77;;;5.70;99.90;;;;;;5069334;28;20382;-66
2021/04/09 02:57:18;;;;;;;69.47;12.17;;;5.80;99.90;;;;;;5067241;28;20387;-65
2021/04/09 02:59:44;;;;;;;69.07;13.40;;;5.70;99.90;;;;;;5084095;28;20727;-65
2021/04/09 03:02:12;;;;;;;73.00;11.75;;;5.70;99.90;;;;;;5080001;28;20392;-65
2021/04/09 03:04:38;;;;;;;75.95;11.85;;;5.70;99.90;;;;;;5079669;28;20394;-67
2021/04/09 03:07:05;;;;;;;1.42;0.88;;;5.70;99.90;;;;;;5055736;28;20396;-67
2021/04/09 03:09:31;;;;;;;7.00;1.05;;;5.70;99.90;;;;;;5066281;28;20382;-64
2021/04/09 03:11:57;;;;;;;0.50;0.40;;;5.70;99.90;;;;;;5082938;28;20370;-66
2021/04/09 03:14:23;;;;;;;1.75;1.08;;;5.60;99.90;;;;;;5064433;28;20771;-64
2021/04/09 03:16:52;;;;;;;1.43;0.80;;;5.60;99.90;;;;;;5083699;28;20401;-65
2021/04/09 03:19:19;;;;;;;1.75;0.52;;;5.60;99.90;;;;;;5064537;28;20402;-65
2021/04/09 03:21:45;;;;;;;0.80;0.40;;;5.60;99.90;;;;;;5064306;28;20390;-65
2021/04/09 03:24:11;;;;;;;0.70;0.55;;;5.60;99.90;;;;;;5068531;28;20413;-64
2021/04/09 03:26:37;;;;;;;1.30;0.20;;;5.60;99.90;;;;;;5062438;28;20741;-64
2021/04/09 03:29:03;;;;;;;0.05;0.05;;;5.60;99.90;;;;;;5063318;28;20772;-65
2021/04/09 03:31:29;;;;;;;1.70;0.80;;;5.50;99.90;;;;;;5065419;28;20400;-65
2021/04/09 03:33:56;;;;;;;0.10;0.10;;;5.50;99.90;;;;;;5066945;28;20398;-65
2021/04/09 03:36:22;;;;;;;2.00;0.50;;;5.50;99.90;;;;;;5065864;28;20382;-65
2021/04/09 03:38:48;;;;;;;1.00;0.70;;;5.70;99.90;;;;;;5059906;28;20412;-66
2021/04/09 03:41:14;;;;;;;0.28;0.28;;;7.50;99.90;;;;;;5059519;28;20382;-67
2021/04/09 03:43:40;;;;;;;18.40;0.43;;;7.50;99.90;;;;;;5062253;28;20390;-65
2021/04/09 03:46:06;;;;;;;0.30;0.30;;;7.60;99.90;;;;;;5063786;28;20454;-64
2021/04/09 03:48:34;;;;;;;12.50;1.30;;;7.70;99.90;;;;;;5057755;28;20407;-65
2021/04/09 03:51:00;;;;;;;0.17;0.17;;;7.60;99.90;;;;;;5060494;28;20386;-65
2021/04/09 03:53:26;;;;;;;0.15;0.10;;;7.50;99.90;;;;;;5074467;28;20393;-66
2021/04/09 03:55:52;;;;;;;0.10;0.10;;;7.30;99.90;;;;;;5059679;28;20389;-66
2021/04/09 03:58:18;;;;;;;0.00;0.00;;;7.20;99.90;;;;;;5064026;28;20409;-64
2021/04/09 04:00:44;;;;;;;0.00;0.00;;;7.10;99.90;;;;;;5067105;28;20374;-65
2021/04/09 04:03:11;;;;;;;0.70;0.70;;;7.10;99.90;;;;;;5067462;28;20390;-65
2021/04/09 04:05:37;;;;;;;0.20;0.20;;;7.30;99.90;;;;;;5069941;28;20386;-64
2021/04/09 04:08:03;;;;;;;0.00;0.00;;;5.90;99.90;;;;;;5065960;28;20402;-65
2021/04/09 04:10:29;;;;;;;0.00;0.00;;;5.70;99.90;;;;;;5081148;28;20746;-65
2021/04/09 04:12:55;;;;;;;0.00;0.00;;;5.30;99.90;;;;;;5064779;28;20413;-65
2021/04/09 04:15:22;;;;;;;0.00;0.00;;;5.20;99.90;;;;;;5068768;28;20427;-66
2021/04/09 04:17:48;;;;;;;0.00;0.00;;;5.20;99.90;;;;;;5068156;28;20383;-64
2021/04/09 04:20:14;;;;;;;3.40;0.50;;;5.20;99.90;;;;;;5073353;28;20382;-64
2021/04/09 04:22:40;;;;;;;0.40;0.30;;;5.10;99.90;;;;;;5074138;28;20441;-64
2021/04/09 04:25:07;;;;;;;0.30;0.30;;;5.20;99.90;;;;;;5073658;28;20750;-64
2021/04/09 04:27:33;;;;;;;0.00;0.00;;;5.10;99.90;;;;;;5073600;28;21198;-67
2021/04/09 04:30:00;;;;;;;0.00;0.00;;;5.00;99.90;;;;;;5068939;28;20399;-64
2021/04/09 04:32:26;;;;;;;0.00;0.00;;;5.10;99.90;;;;;;5072580;28;20778;-64
2021/04/09 04:34:52;;;;;;;0.00;0.00;;;5.10;99.90;;;;;;5073349;28;20723;-66
2021/04/09 04:37:19;;;;;;;0.00;0.00;;;5.20;99.90;;;;;;5071848;28;20485;-65
2021/04/09 04:39:45;;;;;;;0.08;0.00;;;5.20;99.90;;;;;;5067817;28;20410;-64
2021/04/09 04:42:11;;;;;;;2.30;0.50;;;5.20;99.90;;;;;;5073469;28;20374;-66
2021/04/09 04:44:37;;;;;;;0.00;0.00;;;5.20;99.90;;;;;;5072202;28;20391;-65
2021/04/09 04:47:04;;;;;;;0.10;0.10;;;5.10;99.90;;;;;;5072343;28;20379;-66
2021/04/09 04:49:30;;;;;;;0.30;0.30;;;5.20;99.90;;;;;;5071698;28;21097;-65
2021/04/09 04:51:56;;;;;;;0.00;0.00;;;5.00;99.90;;;;;;5072399;28;20362;-66
2021/04/09 04:54:22;;;;;;;0.00;0.00;;;5.00;99.90;;;;;;5071961;28;20480;-66
2021/04/09 04:56:49;;;;;;;0.00;0.00;;;5.10;99.90;;;;;;5072309;28;20366;-66
2021/04/09 04:59:15;;;;;;;0.00;0.00;;;5.10;99.90;;;;;;5073882;28;20417;-66
2021/04/09 05:01:41;;;;;;;0.00;0.00;;;5.10;99.90;;;;;;5073951;28;20374;-65
2021/04/09 05:04:07;;;;;;;0.00;0.00;;;5.10;99.90;;;;;;5074113;28;20386;-66
2021/04/09 05:06:33;;;;;;;0.00;0.00;;;5.10;99.90;;;;;;5073808;28;20378;-65
2021/04/09 05:08:59;;;;;;;0.00;0.00;;;5.20;99.90;;;;;;5073816;28;20393;-65
2021/04/09 05:11:26;;;;;;;0.00;0.00;;;5.20;99.90;;;;;;5088674;28;20374;-66
2021/04/09 05:13:52;;;;;;;0.00;0.00;;;5.20;99.90;;;;;;5089617;28;20405;-65
2021/04/09 05:16:18;;;;;;;0.13;0.13;;;5.30;99.90;;;;;;5073702;28;20467;-66
2021/04/09 05:18:44;;;;;;;0.00;0.00;;;5.30;99.90;;;;;;5073930;28;20757;-65
2021/04/09 05:21:10;;;;;;;0.10;0.10;;;5.40;99.90;;;;;;5073509;28;20385;-65
2021/04/09 05:23:37;;;;;;;22.10;0.70;;;5.40;99.90;;;;;;5073292;28;20370;-65
2021/04/09 05:26:03;;;;;;;0.00;0.00;;;5.40;99.90;;;;;;5073284;28;20390;-62
2021/04/09 05:28:29;;;;;;;0.00;0.00;;;5.50;99.90;;;;;;5073607;28;20397;-61
2021/04/09 05:30:56;;;;;;;0.00;0.00;;;5.50;99.90;;;;;;5061884;28;20768;-63
2021/04/09 05:33:23;;;;;;;0.60;0.60;;;5.50;99.90;;;;;;5053530;28;20403;-64
2021/04/09 05:35:49;;;;;;;0.00;0.00;;;5.60;99.90;;;;;;5066783;28;20408;-63
2021/04/09 05:38:15;;;;;;;0.20;0.20;;;5.60;99.90;;;;;;5072447;28;20386;-63
2021/04/09 05:40:41;;;;;;;0.00;0.00;;;5.60;99.90;;;;;;5069224;28;20402;-64
2021/04/09 05:43:07;;;;;;;0.00;0.00;;;5.70;99.90;;;;;;5072317;28;20886;-63
2021/04/09 05:45:34;;;;;;;0.00;0.00;;;5.70;99.90;;;;;;5071945;28;20397;-63
2021/04/09 05:48:05;;;;;;;0.00;0.00;;;5.80;99.90;;;;;;5072261;28;20375;-63
2021/04/09 05:50:32;;;;;;;0.10;0.10;;;5.80;99.90;;;;;;5068553;28;20378;-63
2021/04/09 05:52:58;;;;;;;0.40;0.40;;;5.90;99.90;;;;;;5070415;28;20379;-62
2021/04/09 05:55:25;;;;;;;0.30;0.30;;;5.90;99.90;;;;;;5071906;28;20858;-61
2021/04/09 05:57:51;;;;;;;0.00;0.00;;;6.00;99.90;;;;;;5072122;28;20390;-61
2021/04/09 06:00:18;;;;;;;0.00;0.00;;;5.90;99.90;;;;;;5071973;28;20409;-62
2021/04/09 06:02:44;;;;;;;2.70;1.25;;;6.00;99.90;;;;;;5071458;28;20967;-62
2021/04/09 06:05:10;;;;;;;0.43;0.43;;;6.00;99.90;;;;;;5070447;28;20731;-62
2021/04/09 06:07:37;;;;;;;0.70;0.60;;;6.00;99.90;;;;;;5070260;28;20410;-62
2021/04/09 06:10:05;;;;;;;0.60;0.30;;;5.90;99.90;;;;;;5071739;28;20783;-63
2021/04/09 06:12:31;;;;;;;0.10;0.10;;;6.00;99.90;;;;;;5069251;28;20375;-63
2021/04/09 06:14:57;;;;;;;0.10;0.10;;;5.90;99.90;;;;;;5070575;28;20431;-62
2021/04/09 06:17:23;;;;;;;0.50;0.20;;;5.90;99.90;;;;;;5071400;28;20383;-61
2021/04/09 06:19:49;;;;;;;1.20;1.10;;;5.80;99.90;;;;;;5067535;28;20402;-60
2021/04/09 06:22:16;;;;;;;0.10;0.10;;;5.90;99.90;;;;;;5072583;28;20386;-61
2021/04/09 06:24:42;;;;;;;0.03;0.03;;;5.90;99.90;;;;;;5070784;28;20432;-61
2021/04/09 06:27:09;;;;;;;0.00;0.00;;;5.80;99.90;;;;;;5054500;28;20382;-62
2021/04/09 06:29:36;;;;;;;0.00;0.00;;;5.80;99.90;;;;;;5071707;28;20402;-61
2021/04/09 06:32:02;;;;;;;0.00;0.00;;;5.90;99.90;;;;;;5064622;28;20425;-60
2021/04/09 06:34:28;;;;;;;0.20;0.20;;;5.80;99.90;;;;;;5059665;28;20390;-60
2021/04/09 06:36:55;;;;;;;0.50;0.50;;;5.90;99.90;;;;;;5056613;28;20875;-60
2021/04/09 06:39:21;;;;;;;0.10;0.10;;;6.00;99.90;;;;;;5058928;28;20410;-61
2021/04/09 06:41:47;;;;;;;1.10;0.70;;;6.10;99.90;;;;;;5060663;28;20403;-60
2021/04/09 06:44:13;;;;;;;3.60;1.40;;;6.20;99.90;;;;;;5069415;28;20394;-60
2021/04/09 06:46:40;;;;;;;0.00;0.00;;;6.20;99.90;;;;;;5067666;28;20378;-60
2021/04/09 06:49:07;;;;;;;3.78;0.77;;;6.30;99.90;;;;;;5063101;28;20397;-60
2021/04/09 06:51:33;;;;;;;0.20;0.20;;;6.40;99.90;;;;;;5062793;28;20393;-60
2021/04/09 06:54:00;;;;;;;2.40;0.50;;;6.40;99.90;;;;;;5068382;28;20750;-60
2021/04/09 06:56:26;;;;;;;1.20;0.30;;;6.40;99.90;;;;;;5056565;28;20404;-60
2021/04/09 06:58:52;;;;;;;0.00;0.00;;;6.50;99.90;;;;;;5062972;28;20418;-60
2021/04/09 07:01:20;;;;;;;2.00;0.70;;;6.60;99.90;;;;;;5049128;28;20378;-60
2021/04/09 07:03:46;;;;;;;0.60;0.60;;;6.60;99.90;;;;;;5047038;28;20910;-59
2021/04/09 07:06:12;;;;;;;2.50;0.73;;;6.50;99.90;;;;;;5051497;28;20856;-61
2021/04/09 07:08:42;;;;;;;0.00;0.00;;;6.60;99.90;;;;;;5056935;28;20425;-60
2021/04/09 07:11:08;;;;;;;4.00;0.90;;;6.50;99.90;;;;;;5051897;28;20416;-60
2021/04/09 07:13:47;;;;;;;0.00;0.00;;;6.40;99.90;;;;;;5051459;28;20396;-60
2021/04/09 07:16:13;;;;;;;1.58;0.68;;;6.30;99.90;;;;;;5058859;28;20392;-60
2021/04/09 07:18:50;;;;;;;1.50;0.60;;;6.40;99.90;;;;;;5066780;28;20733;-60
2021/04/09 07:21:27;;;;;;;0.00;0.00;;;6.30;99.90;;;;;;5056621;28;20402;-60
2021/04/09 07:24:20;;;;;;;0.20;0.20;;;6.30;99.90;;;;;;5059613;28;20416;-59
2021/04/09 07:26:48;;;;;;;7.70;1.40;;;6.30;99.90;;;;;;5063325;28;20388;-59
2021/04/09 07:29:37;;;;;;;0.00;0.00;;;6.20;99.90;;;;;;5072435;28;20398;-59
2021/04/09 07:32:09;;;;;;;0.50;0.50;;;6.20;99.90;;;;;;5057678;28;20911;-60
2021/04/09 07:34:55;;;;;;;0.50;0.13;;;6.30;99.90;;;;;;5058508;28;20863;-60
2021/04/09 07:37:22;;;;;;;0.30;0.30;;;6.40;99.90;;;;;;5068844;28;20386;-59
2021/04/09 07:40:04;;;;;;;0.75;0.45;;;6.40;99.90;;;;;;5068995;28;20420;-59
2021/04/09 07:42:37;;;;;;;0.00;0.00;;;6.40;99.90;;;;;;5054347;28;20403;-60
2021/04/09 07:45:06;;;;;;;0.00;0.00;;;6.50;99.90;;;;;;5056071;28;20398;-60
2021/04/09 07:47:32;;;;;;;0.80;0.80;;;6.60;99.90;;;;;;5073020;28;20415;-60
2021/04/09 07:50:06;;;;;;;0.20;0.20;;;6.80;99.90;;;;;;5072629;28;20862;-59
2021/04/09 07:52:46;;;;;;;0.80;0.80;;;6.70;99.90;;;;;;5055391;28;20399;-60
2021/04/09 07:55:17;;;;;;;1.40;1.10;;;6.80;99.90;;;;;;5055816;28;20743;-59
2021/04/09 07:57:44;;;;;;;5.20;2.10;;;6.80;99.90;;;;;;5057891;28;20403;-59
2021/04/09 08:00:17;;;;;;;0.10;0.10;;;6.60;99.90;;;;;;5059810;28;20916;-60
2021/04/09 08:02:44;;;;;;;0.00;0.00;;;6.50;99.90;;;;;;5056599;28;20390;-59
2021/04/09 08:05:12;;;;;;;0.20;0.20;;;6.60;99.90;;;;;;5061613;28;20464;-59
2021/04/09 08:07:39;;;;;;;9.30;0.80;;;6.80;99.90;;;;;;5067004;28;20389;-60
2021/04/09 08:10:06;;;;;;;0.32;0.32;;;7.20;99.90;;;;;;5070172;28;20479;-60
2021/04/09 08:12:33;;;;;;;0.20;0.20;;;7.30;99.90;;;;;;5058308;28;20380;-59
2021/04/09 08:15:25;;;;;;;0.50;0.40;;;7.50;99.90;;;;;;5067571;28;20821;-58
2021/04/09 08:17:58;;;;;;;0.30;0.08;;;7.50;99.90;;;;;;5069372;28;20393;-59
2021/04/09 08:20:24;;;;;;;0.00;0.00;;;8.00;99.90;;;;;;5069243;28;20890;-59
2021/04/09 08:22:50;;;;;;;0.20;0.20;;;8.50;99.90;;;;;;5055022;28;20383;-58
2021/04/09 08:25:17;;;;;;;4.70;0.50;;;8.70;99.90;;;;;;5054622;28;20407;-58
2021/04/09 08:27:43;;;;;;;0.00;0.00;;;8.70;99.90;;;;;;5049500;28;20403;-58
2021/04/09 08:30:09;;;;;;;3.00;0.60;;;8.70;99.90;;;;;;5077488;28;20390;-59
2021/04/09 08:32:36;;;;;;;1.00;0.70;;;8.60;99.90;;;;;;5059779;28;20386;-59
2021/04/09 08:35:02;;;;;;;1.30;0.60;;;8.10;99.90;;;;;;5079354;28;20389;-58
2021/04/09 08:37:28;;;;;;;1.92;1.25;;;7.70;99.90;;;;;;5053538;28;20391;-59
2021/04/09 08:39:55;;;;;;;0.60;0.60;;;7.90;99.90;;;;;;5050029;28;20419;-58
2021/04/09 08:42:21;;;;;;;1.40;0.50;;;7.90;99.90;;;;;;5057020;28;20395;-59
2021/04/09 08:44:47;;;;;;;1.50;0.70;;;8.50;99.90;;;;;;5067560;28;20393;-58
2021/04/09 08:47:17;;;;;;;0.70;0.60;;;8.90;99.90;;;;;;5067407;28;20387;-57
2021/04/09 08:49:44;;;;;;;0.30;0.27;;;8.90;99.90;;;;;;5068548;28;20413;-58
2021/04/09 08:52:11;;;;;;;0.20;0.20;;;8.70;99.90;;;;;;5072333;28;20403;-57
2021/04/09 08:54:56;;;;;;;0.17;0.17;;;9.10;99.90;;;;;;5025073;28;20411;-57
2021/04/09 08:57:29;;;;;;;0.45;0.45;;;9.70;99.90;;;;;;5072253;28;20389;-56
2021/04/09 09:00:17;;;;;;;0.15;0.15;;;9.80;99.90;;;;;;5072195;28;20410;-57
2021/04/09 09:02:44;;;;;;;0.17;0.10;;;10.10;99.90;;;;;;5054509;28;20395;-57
2021/04/09 09:05:15;;;;;;;0.30;0.25;;;9.50;99.90;;;;;;5066325;28;20404;-57
2021/04/09 09:07:43;;;;;;;0.10;0.10;;;10.20;99.90;;;;;;5062026;28;20378;-58
2021/04/09 09:10:22;;;;;;;1.00;0.90;;;10.20;99.90;;;;;;5073860;28;20380;-57
2021/04/09 09:13:11;;;;;;;0.13;0.13;;;10.10;99.90;;;;;;5072043;28;20373;-57
2021/04/09 09:15:44;;;;;;;1.60;0.60;;;10.30;99.90;;;;;;5072677;28;20377;-58
2021/04/09 09:18:23;;;;;;;0.40;0.40;;;11.10;99.90;;;;;;5063160;28;20880;-58
2021/04/09 09:21:13;;;;;;;0.20;0.20;;;11.10;99.90;;;;;;5061244;28;20857;-58
2021/04/09 09:23:46;;;;;;;0.90;0.80;;;11.20;99.90;;;;;;5054321;28;20396;-58
2021/04/09 09:26:32;;;;;;;0.50;0.50;;;11.60;99.90;;;;;;5062306;28;20384;-58
2021/04/09 09:29:11;;;;;;;1.30;0.90;;;11.20;99.90;;;;;;5069823;28;20394;-59
2021/04/09 09:31:39;;;;;;;5.17;1.33;;;11.50;99.90;;;;;;5085167;28;20376;-59
2021/04/09 09:34:17;;;;;;;1.05;0.68;;;11.90;99.90;;;;;;5063350;28;20882;-60
2021/04/09 09:37:07;;;;;;;0.47;0.38;;;11.70;99.90;;;;;;5063907;28;20391;-61
2021/04/09 09:39:58;;;;;;;0.40;0.40;;;11.00;99.90;;;;;;5064573;28;20410;-63
2021/04/09 09:42:25;;;;;;;0.50;0.50;;;10.90;99.90;;;;;;5069754;28;20373;-63
2021/04/09 09:44:58;;;;;;;0.70;0.60;;;10.50;99.90;;;;;;5072831;28;20370;-62
2021/04/09 09:47:33;;;;;;;0.30;0.30;;;11.40;99.90;;;;;;5072934;28;20445;-60
2021/04/09 09:50:07;;;;;;;5.00;1.30;;;10.60;99.90;;;;;;5073230;28;20389;-59
2021/04/09 09:53:00;;;;;;;0.20;0.20;;;10.80;99.90;;;;;;5064224;28;20870;-59
2021/04/09 09:55:30;;;;;;;0.00;0.00;;;10.00;99.90;;;;;;5062835;28;20456;-59
2021/04/09 09:58:28;;;;;;;34.88;5.78;;;10.70;99.90;;;;;;5076789;28;20394;-58
2021/04/09 10:00:59;;;;;;;35.97;5.10;;;10.60;99.90;;;;;;5058326;28;20415;-59
2021/04/09 10:03:27;;;;;;;38.40;5.10;;;11.10;99.90;;;;;;5053884;28;20732;-59
2021/04/09 10:06:14;;;;;;;34.42;5.35;;;11.50;99.90;;;;;;5055909;28;20386;-59
2021/04/09 10:08:43;;;;;;;32.83;5.03;;;11.70;99.90;;;;;;5057834;28;20399;-58
2021/04/09 10:11:16;;;;;;;40.63;5.13;;;11.90;99.90;;;;;;5057556;28;20392;-60
2021/04/09 10:13:43;;;;;;;43.97;5.43;;;11.80;99.90;;;;;;5079486;28;20735;-59
2021/04/09 10:16:10;;;;;;;34.20;5.07;;;12.90;99.90;;;;;;5070248;28;20390;-59
2021/04/09 10:18:41;;;;;;;30.93;5.03;;;13.00;99.90;;;;;;5071284;28;20382;-59
2021/04/09 10:21:15;;;;;;;32.10;4.70;;;12.80;99.90;;;;;;5053025;28;20732;-59
2021/04/09 10:23:42;;;;;;;36.78;4.93;;;12.50;99.90;;;;;;5068740;28;20378;-60
2021/04/09 10:26:09;;;;;;;31.42;4.90;;;13.30;99.90;;;;;;5053124;28;20399;-60
2021/04/09 10:28:35;;;;;;;29.20;4.60;;;13.70;99.90;;;;;;5051560;28;20395;-60
2021/04/09 10:31:28;;;;;;;25.27;4.07;;;14.00;99.90;;;;;;5053055;28;20415;-60
2021/04/09 10:33:55;;;;;;;32.20;4.47;;;13.50;99.90;;;;;;5043436;28;20400;-59
2021/04/09 10:36:25;;;;;;;33.72;4.60;;;12.20;99.90;;;;;;5059778;28;20394;-59
2021/04/09 10:39:09;;;;;;;30.13;4.25;;;12.80;99.90;;;;;;5062535;28;20389;-59
2021/04/09 10:41:40;;;;;;;32.20;5.03;;;12.90;99.90;;;;;;5062560;28;20396;-60
2021/04/09 10:44:13;;;;;;;30.53;4.57;;;13.70;99.90;;;;;;5066288;28;20736;-60
2021/04/09 10:46:40;;;;;;;28.58;4.50;;;13.60;99.90;;;;;;5064211;28;20393;-60
2021/04/09 10:49:11;;;;;;;26.10;4.18;;;14.00;99.90;;;;;;5084465;28;20946;-60
2021/04/09 10:51:50;;;;;;;33.37;4.50;;;13.30;99.90;;;;;;5051380;28;20396;-59
2021/04/09 10:54:24;;;;;;;35.47;4.32;;;13.60;99.70;;;;;;5060375;28;20870;-59
2021/04/09 10:56:55;;;;;;;31.90;4.68;;;14.10;99.90;;;;;;5050551;28;20388;-59
2021/04/09 10:59:32;;;;;;;28.20;4.10;;;14.20;99.90;;;;;;5065170;28;20390;-59
2021/04/09 11:01:59;;;;;;;28.95;4.40;;;13.60;99.30;;;;;;5048421;28;20391;-59
2021/04/09 11:04:26;;;;;;;29.90;4.53;;;13.80;98.40;;;;;;5057375;28;20407;-59
2021/04/09 11:06:53;;;;;;;28.92;4.63;;;13.00;99.90;;;;;;5078249;28;20385;-59
2021/04/09 11:09:20;;;;;;;29.60;4.70;;;14.40;99.90;;;;;;5059941;28;20937;-59
2021/04/09 11:11:46;;;;;;;33.85;4.60;;;15.70;99.90;;;;;;5055671;28;20487;-60
2021/04/09 11:14:19;;;;;;;31.75;4.53;;;15.10;98.60;;;;;;5056569;28;20860;-59
2021/04/09 11:16:56;;;;;;;34.28;4.97;;;15.90;96.70;;;;;;5053960;28;20424;-59
2021/04/09 11:19:32;;;;;;;30.90;4.18;;;15.70;98.80;;;;;;5065176;28;20445;-60
2021/04/09 11:21:59;;;;;;;27.90;4.13;;;14.40;94.80;;;;;;5060717;28;20483;-60
2021/04/09 11:24:29;;;;;;;25.27;4.05;;;14.20;93.60;;;;;;5065766;28;21293;-60
2021/04/09 11:26:56;;;;;;;23.67;3.90;;;14.50;93.80;;;;;;5063004;28;20401;-59
2021/04/09 11:29:30;;;;;;;28.50;3.90;;;14.00;95.80;;;;;;5061475;28;20397;-59
2021/04/09 11:32:13;;;;;;;33.03;5.13;;;14.80;99.90;;;;;;5058629;28;20468;-60
2021/04/09 11:34:45;;;;;;;29.42;4.45;;;15.90;92.80;;;;;;5063483;28;20391;-59
2021/04/09 11:37:12;;;;;;;25.33;3.53;;;16.40;94.00;;;;;;5052628;28;20391;-59
2021/04/09 11:39:58;;;;;;;29.92;3.88;;;13.70;93.50;;;;;;5054549;28;20399;-59
2021/04/09 11:42:32;;;;;;;26.15;4.07;;;13.90;92.10;;;;;;5058856;28;20721;-59
2021/04/09 11:45:03;;;;;;;25.55;3.80;;;14.20;93.50;;;;;;5067216;28;20399;-59
2021/04/09 11:47:33;;;;;;;23.92;3.58;;;14.00;98.50;;;;;;5058474;28;20388;-59
2021/04/09 11:50:14;;;;;;;24.35;3.85;;;15.90;98.20;;;;;;5057210;28;20936;-59
2021/04/09 11:53:01;;;;;;;30.63;4.28;;;15.30;88.50;;;;;;5055459;28;20382;-59
2021/04/09 11:55:33;;;;;;;21.55;3.00;;;16.40;88.00;;;;;;5069893;28;20386;-59
2021/04/09 11:57:59;;;;;;;27.93;3.70;;;14.70;85.80;;;;;;5070002;28;20404;-59
2021/04/09 12:00:33;;;;;;;26.35;4.05;;;15.30;87.50;;;;;;5060286;28;20416;-59
2021/04/09 12:03:04;;;;;;;28.87;4.27;;;16.40;91.80;;;;;;5054720;28;20916;-59
2021/04/09 12:05:33;;;;;;;26.77;4.27;;;15.50;90.30;;;;;;5068058;28;20409;-59
2021/04/09 12:07:59;;;;;;;30.80;4.67;;;15.50;85.70;;;;;;5056058;28;20395;-60
2021/04/09 12:10:28;;;;;;;30.77;4.30;;;15.50;84.40;;;;;;5048798;28;20388;-59
2021/04/09 12:12:54;;;;;;;40.50;4.53;;;15.30;86.00;;;;;;5050489;28;20419;-59
2021/04/09 12:15:22;;;;;;;23.13;3.83;;;16.30;86.20;;;;;;5050477;28;20375;-60
2021/04/09 12:17:48;;;;;;;27.00;3.38;;;15.30;88.10;;;;;;5051381;28;20411;-60
2021/04/09 12:20:22;;;;;;;29.95;3.85;;;14.80;87.00;;;;;;5049397;28;20408;-60
2021/04/09 12:22:48;;;;;;;25.75;4.03;;;15.90;85.00;;;;;;5068218;28;20394;-60
2021/04/09 12:25:15;;;;;;;17.67;2.97;;;14.90;83.20;;;;;;5070189;28;20393;-60
2021/04/09 12:27:42;;;;;;;25.77;3.33;;;14.40;83.60;;;;;;5055241;28;20396;-59
2021/04/09 12:30:10;;;;;;;22.27;3.42;;;13.40;82.00;;;;;;5072118;28;20448;-60
2021/04/09 12:32:36;;;;;;;26.05;3.67;;;15.50;84.30;;;;;;5064680;28;20406;-60
2021/04/09 12:35:03;;;;;;;34.65;3.17;;;15.50;84.20;;;;;;5066446;28;20484;-60
2021/04/09 12:37:29;;;;;;;17.92;3.03;;;16.90;91.10;;;;;;5074211;28;20386;-60
2021/04/09 12:39:55;;;;;;;20.95;3.35;;;14.30;79.20;;;;;;5073987;28;20432;-60
2021/04/09 12:42:21;;;;;;;24.27;3.58;;;13.40;82.00;;;;;;5056530;28;20378;-61
2021/04/09 12:44:48;;;;;;;21.98;2.90;;;13.40;83.40;;;;;;5073530;28;20410;-60
2021/04/09 12:47:14;;;;;;;26.07;3.13;;;13.20;89.90;;;;;;5074584;28;20378;-60
2021/04/09 12:49:40;;;;;;;21.23;2.88;;;12.80;84.20;;;;;;5072888;28;20390;-60
2021/04/09 12:52:07;;;;;;;22.77;2.92;;;14.20;82.20;;;;;;5073960;28;20386;-60
2021/04/09 12:54:33;;;;;;;22.60;3.42;;;12.60;81.40;;;;;;5073198;28;20886;-60
2021/04/09 12:57:00;;;;;;;21.65;2.65;;;13.80;85.20;;;;;;5070468;28;20383;-61
2021/04/09 12:59:26;;;;;;;25.03;3.43;;;11.90;82.40;;;;;;5075442;28;20399;-60
2021/04/09 13:01:52;;;;;;;26.83;4.23;;;10.00;92.50;;;;;;5077470;28;20398;-60
2021/04/09 13:04:18;;;;;;;27.63;3.55;;;9.60;96.40;;;;;;5060179;28;20394;-59
2021/04/09 13:06:44;;;;;;;26.83;3.65;;;11.80;94.00;;;;;;5059307;28;20388;-59
2021/04/09 13:09:11;;;;;;;27.20;3.78;;;11.80;91.30;;;;;;5060699;28;20407;-61